JTM125 ZSAM-VMMC
Flight info
| Callsign | JTM125 |
|---|---|
| Flight time | 1h 2m |
| Altitude | 32100 |
| Route | NUSPA W597 IKATA A470 BEBEM R200 GUBLO W509 NLG |
| Aircraft | B738/M-SDE2FGHIRWY/L |
Departure
| Time | 2026-04-23 04:12 |
|---|---|
| Airport | Xiamen Gaoqi International Airport (ZSAM) |
Arrival
| Time | 2026-04-23 05:15 |
|---|---|
| Airport | Macau International Airport (VMMC) |
| Time | Latitude | Longitude | Altitude | Speed | Heading |
|---|---|---|---|---|---|
| 2026-04-23 03:46 | 24.53597 | 118.12309 | 77 ft | 0 kts | 142° |
| 2026-04-23 04:00 | 24.53601 | 118.12305 | 77 ft | 1 kts | 142° |
| 2026-04-23 04:00 | 24.53612 | 118.12296 | 77 ft | 2 kts | 142° |
| 2026-04-23 04:01 | 24.53625 | 118.12285 | 77 ft | 1 kts | 142° |
| 2026-04-23 04:01 | 24.53632 | 118.12279 | 77 ft | 1 kts | 142° |
| 2026-04-23 04:01 | 24.53641 | 118.12271 | 77 ft | 1 kts | 142° |
| 2026-04-23 04:01 | 24.53643 | 118.12270 | 77 ft | 0 kts | 154° |
| 2026-04-23 04:02 | 24.53646 | 118.12268 | 77 ft | 1 kts | 209° |
| 2026-04-23 04:02 | 24.53655 | 118.12277 | 77 ft | 0 kts | 248° |
| 2026-04-23 04:02 | 24.53636 | 118.12235 | 77 ft | 11 kts | 241° |
| 2026-04-23 04:02 | 24.53581 | 118.12153 | 78 ft | 13 kts | 231° |
| 2026-04-23 04:03 | 24.53560 | 118.12063 | 78 ft | 13 kts | 307° |
| 2026-04-23 04:03 | 24.53632 | 118.12006 | 78 ft | 12 kts | 359° |
| 2026-04-23 04:03 | 24.53699 | 118.12056 | 78 ft | 12 kts | 51° |
| 2026-04-23 04:03 | 24.53753 | 118.12130 | 78 ft | 12 kts | 51° |
| 2026-04-23 04:04 | 24.53807 | 118.12206 | 78 ft | 12 kts | 52° |
| 2026-04-23 04:04 | 24.53870 | 118.12296 | 77 ft | 17 kts | 52° |
| 2026-04-23 04:04 | 24.53958 | 118.12420 | 77 ft | 23 kts | 51° |
| 2026-04-23 04:04 | 24.54063 | 118.12565 | 77 ft | 24 kts | 53° |
| 2026-04-23 04:05 | 24.54168 | 118.12713 | 77 ft | 24 kts | 52° |
| 2026-04-23 04:05 | 24.54275 | 118.12862 | 77 ft | 25 kts | 52° |
| 2026-04-23 04:05 | 24.54384 | 118.13014 | 77 ft | 25 kts | 52° |
| 2026-04-23 04:05 | 24.54494 | 118.13168 | 77 ft | 25 kts | 52° |
| 2026-04-23 04:06 | 24.54604 | 118.13320 | 77 ft | 25 kts | 53° |
| 2026-04-23 04:06 | 24.54694 | 118.13448 | 77 ft | 16 kts | 51° |
| 2026-04-23 04:06 | 24.54766 | 118.13548 | 77 ft | 16 kts | 52° |
| 2026-04-23 04:06 | 24.54839 | 118.13650 | 76 ft | 17 kts | 52° |
| 2026-04-23 04:07 | 24.54914 | 118.13756 | 76 ft | 17 kts | 52° |
| 2026-04-23 04:07 | 24.54990 | 118.13862 | 76 ft | 18 kts | 52° |
| 2026-04-23 04:07 | 24.55069 | 118.13972 | 76 ft | 18 kts | 51° |
| 2026-04-23 04:07 | 24.55150 | 118.14084 | 76 ft | 18 kts | 52° |
| 2026-04-23 04:08 | 24.55212 | 118.14156 | 76 ft | 10 kts | 15° |
| 2026-04-23 04:08 | 24.55256 | 118.14149 | 76 ft | 0 kts | 329° |
| 2026-04-23 04:10 | 24.55260 | 118.14146 | 76 ft | 1 kts | 329° |
| 2026-04-23 04:10 | 24.55270 | 118.14140 | 76 ft | 1 kts | 329° |
| 2026-04-23 04:10 | 24.55291 | 118.14124 | 76 ft | 6 kts | 322° |
| 2026-04-23 04:11 | 24.55326 | 118.14066 | 76 ft | 10 kts | 276° |
| 2026-04-23 04:11 | 24.55294 | 118.13996 | 76 ft | 10 kts | 233° |
| 2026-04-23 04:11 | 24.55216 | 118.13886 | 77 ft | 43 kts | 232° |
| 2026-04-23 04:11 | 24.54874 | 118.13408 | 77 ft | 113 kts | 231° |
| 2026-04-23 04:12 | 24.54270 | 118.12563 | 169 ft | 156 kts | 230° |
| 2026-04-23 04:12 | 24.53586 | 118.11607 | 533 ft | 170 kts | 230° |
| 2026-04-23 04:12 | 24.52811 | 118.10541 | 974 ft | 185 kts | 233° |
| 2026-04-23 04:12 | 24.52014 | 118.09422 | 1675 ft | 191 kts | 234° |
| 2026-04-23 04:13 | 24.51190 | 118.08302 | 2446 ft | 191 kts | 232° |
| 2026-04-23 04:13 | 24.50351 | 118.07153 | 3064 ft | 199 kts | 234° |
| 2026-04-23 04:13 | 24.49483 | 118.05928 | 3649 ft | 210 kts | 234° |
| 2026-04-23 04:13 | 24.48564 | 118.04635 | 4219 ft | 221 kts | 233° |
| 2026-04-23 04:14 | 24.47586 | 118.03278 | 4769 ft | 233 kts | 233° |
| 2026-04-23 04:14 | 24.46563 | 118.01860 | 5370 ft | 241 kts | 233° |
| 2026-04-23 04:14 | 24.45522 | 118.00423 | 6106 ft | 247 kts | 232° |
| 2026-04-23 04:14 | 24.44440 | 117.98960 | 7166 ft | 247 kts | 231° |
| 2026-04-23 04:15 | 24.43384 | 117.97543 | 8260 ft | 246 kts | 232° |
| 2026-04-23 04:15 | 24.42324 | 117.96115 | 9374 ft | 245 kts | 232° |
| 2026-04-23 04:15 | 24.40208 | 117.93264 | 11432 ft | 246 kts | 232° |
| 2026-04-23 04:16 | 24.39140 | 117.91820 | 12395 ft | 249 kts | 232° |
| 2026-04-23 04:16 | 24.38058 | 117.90358 | 13346 ft | 252 kts | 233° |
| 2026-04-23 04:16 | 24.36952 | 117.88864 | 14230 ft | 257 kts | 233° |
| 2026-04-23 04:16 | 24.35828 | 117.87342 | 15154 ft | 261 kts | 233° |
| 2026-04-23 04:17 | 24.34685 | 117.85805 | 16100 ft | 263 kts | 233° |
| 2026-04-23 04:17 | 24.33459 | 117.84315 | 16939 ft | 269 kts | 227° |
| 2026-04-23 04:17 | 24.32025 | 117.82992 | 17737 ft | 276 kts | 220° |
| 2026-04-23 04:17 | 24.30443 | 117.81796 | 18550 ft | 281 kts | 218° |
| 2026-04-23 04:18 | 24.28818 | 117.80634 | 19335 ft | 284 kts | 218° |
| 2026-04-23 04:18 | 24.27155 | 117.79428 | 20112 ft | 287 kts | 219° |
| 2026-04-23 04:18 | 24.25513 | 117.78213 | 20855 ft | 290 kts | 219° |
| 2026-04-23 04:18 | 24.23827 | 117.76954 | 21571 ft | 294 kts | 219° |
| 2026-04-23 04:19 | 24.22137 | 117.75691 | 22263 ft | 297 kts | 220° |
| 2026-04-23 04:19 | 24.20437 | 117.74419 | 22957 ft | 299 kts | 220° |
| 2026-04-23 04:19 | 24.18721 | 117.73132 | 23591 ft | 304 kts | 220° |
| 2026-04-23 04:19 | 24.16964 | 117.71816 | 24226 ft | 308 kts | 221° |
| 2026-04-23 04:20 | 24.15188 | 117.70489 | 24864 ft | 311 kts | 221° |
| 2026-04-23 04:20 | 24.13366 | 117.69125 | 25314 ft | 320 kts | 221° |
| 2026-04-23 04:20 | 24.11510 | 117.67732 | 25770 ft | 329 kts | 221° |
| 2026-04-23 04:20 | 24.09623 | 117.66320 | 26287 ft | 334 kts | 221° |
| 2026-04-23 04:21 | 24.07698 | 117.64886 | 26965 ft | 334 kts | 221° |
| 2026-04-23 04:21 | 24.05818 | 117.63429 | 27755 ft | 327 kts | 225° |
| 2026-04-23 04:21 | 24.04118 | 117.61870 | 28514 ft | 319 kts | 229° |
| 2026-04-23 04:21 | 24.02517 | 117.60219 | 29231 ft | 315 kts | 231° |
| 2026-04-23 04:22 | 24.00969 | 117.58542 | 29763 ft | 316 kts | 232° |
| 2026-04-23 04:22 | 23.99385 | 117.56808 | 30118 ft | 323 kts | 232° |
| 2026-04-23 04:22 | 23.97779 | 117.55057 | 30461 ft | 330 kts | 231° |
| 2026-04-23 04:22 | 23.96128 | 117.53265 | 30693 ft | 340 kts | 231° |
| 2026-04-23 04:23 | 23.94436 | 117.51441 | 30909 ft | 350 kts | 230° |
| 2026-04-23 04:23 | 23.92662 | 117.49534 | 31009 ft | 363 kts | 231° |
| 2026-04-23 04:23 | 23.90842 | 117.47581 | 31167 ft | 374 kts | 230° |
| 2026-04-23 04:23 | 23.88938 | 117.45542 | 31303 ft | 386 kts | 230° |
| 2026-04-23 04:24 | 23.87027 | 117.43453 | 31413 ft | 397 kts | 232° |
| 2026-04-23 04:24 | 23.83585 | 117.38563 | 31573 ft | 416 kts | 243° |
| 2026-04-23 04:24 | 23.82251 | 117.35748 | 31840 ft | 420 kts | 249° |
| 2026-04-23 04:25 | 23.81205 | 117.32771 | 31935 ft | 418 kts | 254° |
| 2026-04-23 04:25 | 23.79692 | 117.26750 | 31932 ft | 410 kts | 257° |
| 2026-04-23 04:26 | 23.78290 | 117.20703 | 31929 ft | 413 kts | 258° |
| 2026-04-23 04:26 | 23.76566 | 117.14734 | 31927 ft | 419 kts | 247° |
| 2026-04-23 04:27 | 23.73102 | 117.09480 | 31927 ft | 431 kts | 233° |
| 2026-04-23 04:27 | 23.68959 | 117.04735 | 31925 ft | 432 kts | 230° |
| 2026-04-23 04:28 | 23.62634 | 116.97751 | 31921 ft | 432 kts | 230° |
| 2026-04-23 04:28 | 23.58437 | 116.93054 | 31921 ft | 433 kts | 230° |
| 2026-04-23 04:29 | 23.54256 | 116.88334 | 31922 ft | 432 kts | 230° |
| 2026-04-23 04:29 | 23.50090 | 116.83617 | 31921 ft | 434 kts | 230° |
| 2026-04-23 04:30 | 23.45902 | 116.78881 | 31921 ft | 433 kts | 230° |
| 2026-04-23 04:30 | 23.41439 | 116.74409 | 31925 ft | 439 kts | 224° |
| 2026-04-23 04:31 | 23.36608 | 116.70335 | 31925 ft | 441 kts | 222° |
| 2026-04-23 04:31 | 23.31725 | 116.66372 | 31924 ft | 439 kts | 221° |
| 2026-04-23 04:32 | 23.26826 | 116.62377 | 31925 ft | 440 kts | 221° |
| 2026-04-23 04:32 | 23.21932 | 116.58353 | 31926 ft | 442 kts | 222° |
| 2026-04-23 04:33 | 23.17034 | 116.54307 | 31923 ft | 441 kts | 222° |
| 2026-04-23 04:33 | 23.12134 | 116.50255 | 31924 ft | 442 kts | 222° |
| 2026-04-23 04:34 | 23.07236 | 116.46205 | 31924 ft | 442 kts | 222° |
| 2026-04-23 04:34 | 23.02368 | 116.42183 | 31923 ft | 441 kts | 222° |
| 2026-04-23 04:35 | 22.97460 | 116.38129 | 31922 ft | 444 kts | 222° |
| 2026-04-23 04:35 | 22.92561 | 116.34084 | 31923 ft | 444 kts | 222° |
| 2026-04-23 04:36 | 22.87654 | 116.30009 | 31922 ft | 445 kts | 222° |
| 2026-04-23 04:36 | 22.82748 | 116.25932 | 31922 ft | 444 kts | 222° |
| 2026-04-23 04:37 | 22.77830 | 116.21850 | 31925 ft | 446 kts | 221° |
| 2026-04-23 04:37 | 22.72911 | 116.17770 | 31926 ft | 445 kts | 222° |
| 2026-04-23 04:38 | 22.67992 | 116.13708 | 31922 ft | 445 kts | 221° |
| 2026-04-23 04:38 | 22.63030 | 116.09628 | 31922 ft | 447 kts | 221° |
| 2026-04-23 04:39 | 22.58099 | 116.05583 | 31922 ft | 447 kts | 221° |
| 2026-04-23 04:39 | 22.53143 | 116.01450 | 31918 ft | 446 kts | 225° |
| 2026-04-23 04:40 | 22.49139 | 115.96452 | 31919 ft | 439 kts | 242° |
| 2026-04-23 04:40 | 22.46724 | 115.90449 | 31927 ft | 436 kts | 255° |
| 2026-04-23 04:41 | 22.45693 | 115.84037 | 31927 ft | 433 kts | 265° |
| 2026-04-23 04:41 | 22.45312 | 115.77589 | 31922 ft | 432 kts | 268° |
| 2026-04-23 04:42 | 22.45028 | 115.71093 | 31930 ft | 434 kts | 268° |
| 2026-04-23 04:42 | 22.44712 | 115.64626 | 31923 ft | 432 kts | 267° |
| 2026-04-23 04:43 | 22.44378 | 115.58171 | 31929 ft | 434 kts | 268° |
| 2026-04-23 04:43 | 22.44021 | 115.51667 | 31929 ft | 433 kts | 268° |
| 2026-04-23 04:44 | 22.43641 | 115.45219 | 31931 ft | 433 kts | 267° |
| 2026-04-23 04:44 | 22.43241 | 115.38753 | 31934 ft | 432 kts | 266° |
| 2026-04-23 04:45 | 22.42801 | 115.32266 | 31936 ft | 434 kts | 266° |
| 2026-04-23 04:45 | 22.42369 | 115.25778 | 31938 ft | 433 kts | 266° |
| 2026-04-23 04:46 | 22.41947 | 115.19294 | 31937 ft | 433 kts | 266° |
| 2026-04-23 04:46 | 22.41530 | 115.12842 | 31934 ft | 433 kts | 266° |
| 2026-04-23 04:47 | 22.41112 | 115.06368 | 31935 ft | 433 kts | 266° |
| 2026-04-23 04:47 | 22.40692 | 114.99873 | 31934 ft | 434 kts | 266° |
| 2026-04-23 04:48 | 22.40271 | 114.93438 | 31933 ft | 433 kts | 266° |
| 2026-04-23 04:48 | 22.39844 | 114.86916 | 31934 ft | 434 kts | 266° |
| 2026-04-23 04:49 | 22.39417 | 114.80450 | 31935 ft | 433 kts | 266° |
| 2026-04-23 04:49 | 22.38988 | 114.73984 | 31937 ft | 434 kts | 266° |
| 2026-04-23 04:50 | 22.38554 | 114.67487 | 31943 ft | 434 kts | 266° |
| 2026-04-23 04:50 | 22.38119 | 114.61010 | 31947 ft | 433 kts | 266° |
| 2026-04-23 04:51 | 22.37681 | 114.54555 | 31950 ft | 433 kts | 266° |
| 2026-04-23 04:51 | 22.37241 | 114.48088 | 31952 ft | 433 kts | 266° |
| 2026-04-23 04:52 | 22.36795 | 114.41589 | 31940 ft | 432 kts | 266° |
| 2026-04-23 04:52 | 22.36577 | 114.38425 | 31782 ft | 421 kts | 266° |
| 2026-04-23 04:52 | 22.36361 | 114.35316 | 31579 ft | 407 kts | 266° |
| 2026-04-23 04:53 | 22.36152 | 114.32313 | 31421 ft | 393 kts | 266° |
| 2026-04-23 04:53 | 22.35951 | 114.29421 | 31219 ft | 381 kts | 266° |
| 2026-04-23 04:53 | 22.35757 | 114.26626 | 30991 ft | 371 kts | 266° |
| 2026-04-23 04:53 | 22.35566 | 114.23884 | 30549 ft | 366 kts | 266° |
| 2026-04-23 04:54 | 22.35378 | 114.21172 | 30056 ft | 363 kts | 266° |
| 2026-04-23 04:54 | 22.35190 | 114.18467 | 29512 ft | 361 kts | 266° |
| 2026-04-23 04:54 | 22.35002 | 114.15769 | 29045 ft | 357 kts | 266° |
| 2026-04-23 04:54 | 22.34816 | 114.13115 | 28520 ft | 354 kts | 266° |
| 2026-04-23 04:55 | 22.34631 | 114.10489 | 27971 ft | 353 kts | 266° |
| 2026-04-23 04:55 | 22.34446 | 114.07861 | 27484 ft | 349 kts | 266° |
| 2026-04-23 04:55 | 22.34262 | 114.05269 | 26977 ft | 347 kts | 266° |
| 2026-04-23 04:55 | 22.34079 | 114.02689 | 26485 ft | 344 kts | 266° |
| 2026-04-23 04:56 | 22.33890 | 114.00139 | 25984 ft | 341 kts | 265° |
| 2026-04-23 04:56 | 22.33570 | 113.97613 | 25489 ft | 339 kts | 261° |
| 2026-04-23 04:56 | 22.33070 | 113.95133 | 24986 ft | 337 kts | 257° |
| 2026-04-23 04:56 | 22.32293 | 113.92791 | 24481 ft | 336 kts | 246° |
| 2026-04-23 04:57 | 22.31048 | 113.90645 | 23990 ft | 337 kts | 235° |
| 2026-04-23 04:57 | 22.29389 | 113.88833 | 23471 ft | 341 kts | 223° |
| 2026-04-23 04:57 | 22.27406 | 113.87455 | 23010 ft | 343 kts | 211° |
| 2026-04-23 04:57 | 22.25183 | 113.86520 | 22541 ft | 345 kts | 204° |
| 2026-04-23 04:58 | 22.22963 | 113.85586 | 22076 ft | 338 kts | 210° |
| 2026-04-23 04:58 | 22.20888 | 113.84457 | 21625 ft | 333 kts | 213° |
| 2026-04-23 04:58 | 22.18854 | 113.83257 | 21137 ft | 331 kts | 212° |
| 2026-04-23 04:58 | 22.16815 | 113.82127 | 20683 ft | 328 kts | 214° |
| 2026-04-23 04:59 | 22.14897 | 113.80817 | 20225 ft | 323 kts | 219° |
| 2026-04-23 04:59 | 22.13098 | 113.79410 | 19759 ft | 320 kts | 221° |
| 2026-04-23 04:59 | 22.11338 | 113.77975 | 19305 ft | 317 kts | 222° |
| 2026-04-23 04:59 | 22.09691 | 113.76405 | 18794 ft | 313 kts | 230° |
| 2026-04-23 05:00 | 22.08287 | 113.74634 | 18320 ft | 309 kts | 235° |
| 2026-04-23 05:00 | 22.06969 | 113.72819 | 17883 ft | 306 kts | 234° |
| 2026-04-23 05:00 | 22.05630 | 113.71049 | 17440 ft | 304 kts | 234° |
| 2026-04-23 05:00 | 22.04304 | 113.69259 | 16929 ft | 303 kts | 234° |
| 2026-04-23 05:01 | 22.03085 | 113.67436 | 16464 ft | 300 kts | 242° |
| 2026-04-23 05:01 | 22.02308 | 113.65406 | 16148 ft | 290 kts | 257° |
| 2026-04-23 05:01 | 22.01969 | 113.63312 | 15914 ft | 281 kts | 263° |
| 2026-04-23 05:01 | 22.01871 | 113.61228 | 15398 ft | 282 kts | 276° |
| 2026-04-23 05:02 | 22.02541 | 113.59265 | 14690 ft | 285 kts | 303° |
| 2026-04-23 05:02 | 22.04025 | 113.57838 | 13979 ft | 291 kts | 327° |
| 2026-04-23 05:02 | 22.05942 | 113.57106 | 13271 ft | 296 kts | 344° |
| 2026-04-23 05:02 | 22.07959 | 113.56702 | 12536 ft | 295 kts | 344° |
| 2026-04-23 05:03 | 22.09888 | 113.56054 | 11798 ft | 288 kts | 329° |
| 2026-04-23 05:03 | 22.11572 | 113.55000 | 11139 ft | 281 kts | 321° |
| 2026-04-23 05:03 | 22.13145 | 113.53776 | 10468 ft | 277 kts | 318° |
| 2026-04-23 05:03 | 22.14671 | 113.52521 | 9799 ft | 275 kts | 318° |
| 2026-04-23 05:04 | 22.16178 | 113.51302 | 9126 ft | 274 kts | 319° |
| 2026-04-23 05:04 | 22.17718 | 113.50093 | 8492 ft | 272 kts | 320° |
| 2026-04-23 05:04 | 22.19240 | 113.48918 | 7874 ft | 270 kts | 320° |
| 2026-04-23 05:04 | 22.20859 | 113.47890 | 7218 ft | 274 kts | 334° |
| 2026-04-23 05:05 | 22.22744 | 113.47535 | 6567 ft | 282 kts | 2° |
| 2026-04-23 05:05 | 22.24602 | 113.48203 | 6176 ft | 276 kts | 29° |
| 2026-04-23 05:05 | 22.26187 | 113.49300 | 5796 ft | 268 kts | 31° |
| 2026-04-23 05:05 | 22.27695 | 113.50362 | 5624 ft | 251 kts | 30° |
| 2026-04-23 05:06 | 22.29132 | 113.51352 | 5453 ft | 238 kts | 30° |
| 2026-04-23 05:06 | 22.30506 | 113.52284 | 5312 ft | 225 kts | 29° |
| 2026-04-23 05:06 | 22.31806 | 113.53160 | 5138 ft | 216 kts | 29° |
| 2026-04-23 05:06 | 22.33067 | 113.54009 | 4900 ft | 211 kts | 28° |
| 2026-04-23 05:07 | 22.34288 | 113.54824 | 4570 ft | 203 kts | 29° |
| 2026-04-23 05:07 | 22.35465 | 113.55674 | 4092 ft | 207 kts | 39° |
| 2026-04-23 05:07 | 22.36284 | 113.56918 | 3769 ft | 199 kts | 73° |
| 2026-04-23 05:07 | 22.36398 | 113.58359 | 3530 ft | 189 kts | 94° |
| 2026-04-23 05:08 | 22.36330 | 113.59760 | 3170 ft | 185 kts | 98° |
| 2026-04-23 05:08 | 22.35954 | 113.60995 | 3060 ft | 161 kts | 128° |
| 2026-04-23 05:08 | 22.35199 | 113.61755 | 3105 ft | 142 kts | 151° |
| 2026-04-23 05:08 | 22.34323 | 113.62250 | 2967 ft | 141 kts | 165° |
| 2026-04-23 05:09 | 22.33386 | 113.62520 | 2783 ft | 138 kts | 172° |
| 2026-04-23 05:09 | 22.32462 | 113.62793 | 2672 ft | 136 kts | 169° |
| 2026-04-23 05:09 | 22.31543 | 113.63098 | 2690 ft | 137 kts | 169° |
| 2026-04-23 05:09 | 22.30636 | 113.63398 | 2647 ft | 138 kts | 169° |
| 2026-04-23 05:10 | 22.29704 | 113.63693 | 2474 ft | 136 kts | 170° |
| 2026-04-23 05:10 | 22.28795 | 113.63969 | 2309 ft | 136 kts | 173° |
| 2026-04-23 05:10 | 22.27866 | 113.64069 | 2153 ft | 131 kts | 190° |
| 2026-04-23 05:10 | 22.26976 | 113.63882 | 2000 ft | 128 kts | 203° |
| 2026-04-23 05:11 | 22.26157 | 113.63525 | 1838 ft | 126 kts | 213° |
| 2026-04-23 05:11 | 22.25462 | 113.62993 | 1777 ft | 122 kts | 227° |
| 2026-04-23 05:11 | 22.24886 | 113.62309 | 1790 ft | 123 kts | 236° |
| 2026-04-23 05:11 | 22.24370 | 113.61560 | 1790 ft | 123 kts | 237° |
| 2026-04-23 05:12 | 22.23851 | 113.60819 | 1790 ft | 122 kts | 236° |
| 2026-04-23 05:12 | 22.23340 | 113.60115 | 1603 ft | 121 kts | 235° |
| 2026-04-23 05:12 | 22.22797 | 113.59365 | 1376 ft | 126 kts | 236° |
| 2026-04-23 05:12 | 22.22293 | 113.58621 | 1254 ft | 122 kts | 237° |
| 2026-04-23 05:13 | 22.21800 | 113.57872 | 1081 ft | 124 kts | 229° |
| 2026-04-23 05:13 | 22.21045 | 113.57429 | 960 ft | 128 kts | 197° |
| 2026-04-23 05:13 | 22.20143 | 113.57375 | 839 ft | 131 kts | 180° |
| 2026-04-23 05:14 | 22.18383 | 113.57969 | 590 ft | 133 kts | 165° |
| 2026-04-23 05:14 | 22.17513 | 113.58273 | 443 ft | 130 kts | 167° |
| 2026-04-23 05:14 | 22.16635 | 113.58559 | 228 ft | 130 kts | 167° |
| 2026-04-23 05:14 | 22.15781 | 113.58836 | 66 ft | 124 kts | 167° |
| 2026-04-23 05:15 | 22.15023 | 113.59107 | 12 ft | 97 kts | 161° |
| 2026-04-23 05:15 | 22.14611 | 113.59261 | 12 ft | 24 kts | 161° |